logo
Search for airport 
image banner adimage banner adimage banner ad
image banner ad

LKHODO - Bechyne

Located in Hodonice, Czech Republic

ICAO - , IATA -

Data provided by Airmate  

General information

Coordinates: N49°16'31" E14°28'47"
Elevation is 1371 feet MSL.
Magnetic variation is 4° East
View others Airports in South Bohemian Region

Operational data

Special qualification required
Current time UTC:
Current local time:
Weather at : - ( 0 km )
METAR: ZMUB 171900Z 01004MPS 9999 SCT033 SCT100 04/M11 Q1020 NOSIG RMK QFE657.5 32 NT
View NOTAMs / SUP AIP / TFR affecting this airport [VIEW]
Communications frequencies: [VIEW]

Runways:

RWY identifierQFULength (ft)Width (ft)SurfaceLDA (ft)
10102°290764CONC
28282°290764CONC

Airport contact information

Address: Hodonice Czech Republic

Satellite view of LKHODO